Time;durP1;ratioP1;P1;durP2;ratioP2;P2;SDS_P1;SDS_P2;PMS_P1;PMS_P2;Temp;Humidity;BMP_temperature;BMP_pressure;BME280_temperature;BME280_humidity;BME280_pressure;Samples;Min_cycle;Max_cycle;Signal;HPM_P1;HPM_P2
2022/08/12 00:43:03;;;;;;;1.90;1.70;;;26.60;64.70;;;;;;4918697;29;20423;-87
2022/08/12 00:46:29;;;;;;;1.87;1.77;;;26.70;64.80;;;;;;4918348;29;20487;-87
2022/08/12 00:48:18;;;;;;;1.90;1.80;;;26.70;64.70;;;;;;4918220;29;20449;-87
2022/08/12 00:50:47;;;;;;;1.67;1.57;;;26.70;64.70;;;;;;4919209;29;20539;-85
2022/08/12 00:53:16;;;;;;;2.20;2.00;;;26.70;64.70;;;;;;4918480;29;20479;-87
2022/08/12 00:55:45;;;;;;;1.67;1.57;;;26.70;64.60;;;;;;4918323;29;20820;-87
2022/08/12 00:58:16;;;;;;;1.90;1.80;;;26.70;64.50;;;;;;4918368;29;20448;-87
2022/08/12 01:00:44;;;;;;;1.80;1.70;;;26.70;64.50;;;;;;4918947;29;20567;-88
2022/08/12 01:03:15;;;;;;;1.70;1.60;;;26.70;64.50;;;;;;4918100;29;20468;-86
2022/08/12 01:11:31;;;;;;;1.93;1.80;;;26.70;64.40;;;;;;4918407;29;20471;-87
2022/08/12 01:14:01;;;;;;;1.77;1.67;;;26.70;64.40;;;;;;4917746;29;20452;-87
2022/08/12 01:16:28;;;;;;;1.70;1.60;;;26.70;64.30;;;;;;4917843;29;20472;-87
2022/08/12 01:18:57;;;;;;;1.60;1.50;;;26.70;64.20;;;;;;4918150;29;20458;-87
2022/08/12 01:22:01;;;;;;;1.80;1.70;;;26.70;64.20;;;;;;4917807;29;20452;-87
2022/08/12 01:25:01;;;;;;;1.70;1.60;;;26.70;64.00;;;;;;4909306;29;20487;-87
2022/08/12 01:27:29;;;;;;;1.57;1.47;;;26.70;64.10;;;;;;4917801;29;20547;-87
2022/08/12 01:29:59;;;;;;;1.70;1.60;;;26.70;64.10;;;;;;4917797;29;20444;-87
2022/08/12 01:32:28;;;;;;;1.53;1.43;;;26.70;64.00;;;;;;4917441;29;20460;-87
2022/08/12 01:35:02;;;;;;;1.70;1.60;;;26.70;64.00;;;;;;4917518;29;20983;-87
2022/08/12 01:37:57;;;;;;;1.67;1.57;;;26.70;63.90;;;;;;4917263;29;20972;-87
2022/08/12 01:40:29;;;;;;;2.00;1.90;;;26.70;63.80;;;;;;4917571;29;20527;-87
2022/08/12 01:43:00;;;;;;;1.60;1.50;;;26.70;63.90;;;;;;4917973;29;20808;-87
2022/08/12 01:45:28;;;;;;;1.60;1.50;;;26.70;63.90;;;;;;4918174;29;20579;-87
2022/08/12 01:48:05;;;;;;;1.67;1.57;;;26.70;63.80;;;;;;4917537;29;20444;-88
2022/08/12 01:50:39;;;;;;;1.40;1.30;;;26.70;63.80;;;;;;4918034;29;20435;-88
2022/08/12 01:53:10;;;;;;;2.13;2.03;;;26.70;63.70;;;;;;4917595;29;20479;-87
2022/08/12 01:55:41;;;;;;;1.90;1.80;;;26.70;63.70;;;;;;4917470;29;20488;-87
2022/08/12 01:58:19;;;;;;;1.70;1.60;;;26.70;63.70;;;;;;4917255;29;20455;-86
2022/08/12 02:00:57;;;;;;;1.53;1.43;;;26.70;63.70;;;;;;4917416;29;20556;-87
2022/08/12 02:12:27;;;;;;;1.93;1.83;;;26.60;63.70;;;;;;4917293;29;20976;-86
2022/08/12 02:15:01;;;;;;;1.63;1.53;;;26.70;63.80;;;;;;4917050;29;20452;-86
2022/08/12 02:17:45;;;;;;;1.57;1.47;;;26.60;63.70;;;;;;4917376;29;20558;-86
2022/08/12 02:20:20;;;;;;;2.30;2.10;;;26.70;63.70;;;;;;4917385;29;20455;-86
2022/08/12 02:22:48;;;;;;;1.90;1.80;;;26.70;63.70;;;;;;4917181;29;20448;-86
2022/08/12 02:25:18;;;;;;;1.53;1.43;;;26.70;63.60;;;;;;4916951;29;20527;-87
2022/08/12 02:27:48;;;;;;;1.50;1.40;;;26.70;63.60;;;;;;4917152;29;20476;-87
2022/08/12 02:30:18;;;;;;;1.73;1.63;;;26.70;63.60;;;;;;4917341;29;20929;-86
2022/08/12 02:32:47;;;;;;;1.43;1.33;;;26.70;63.50;;;;;;4917298;29;20467;-86
2022/08/12 02:35:18;;;;;;;1.60;1.50;;;26.70;63.60;;;;;;4916876;29;20483;-86
2022/08/12 02:37:46;;;;;;;1.57;1.47;;;26.70;63.50;;;;;;4917268;29;20448;-89
2022/08/12 02:40:16;;;;;;;1.70;1.60;;;26.70;63.50;;;;;;4916810;29;20476;-87
2022/08/12 02:42:50;;;;;;;1.53;1.43;;;26.70;63.50;;;;;;4916877;29;20544;-86
2022/08/12 02:45:24;;;;;;;1.60;1.50;;;26.70;63.50;;;;;;4920609;29;20487;-86
2022/08/12 02:47:54;;;;;;;1.77;1.67;;;26.70;63.60;;;;;;4920651;29;20526;-86
2022/08/12 02:50:24;;;;;;;1.73;1.63;;;26.70;63.50;;;;;;4920572;29;20542;-86
2022/08/12 02:52:52;;;;;;;1.57;1.47;;;26.70;63.50;;;;;;4920408;29;20440;-86
2022/08/12 02:55:23;;;;;;;1.90;1.80;;;26.70;63.60;;;;;;4920931;29;20932;-86
2022/08/12 02:57:53;;;;;;;1.60;1.50;;;26.70;63.50;;;;;;4920615;29;20538;-86
2022/08/12 03:00:20;;;;;;;1.80;1.70;;;26.70;63.50;;;;;;4920625;29;20535;-87
2022/08/12 03:02:51;;;;;;;1.80;1.70;;;26.70;63.50;;;;;;4920532;29;20468;-86
2022/08/12 03:05:23;;;;;;;1.47;1.37;;;26.70;63.50;;;;;;4920481;29;20483;-86
2022/08/12 03:07:54;;;;;;;1.50;1.40;;;26.70;63.50;;;;;;4920468;29;20452;-86
2022/08/12 03:10:23;;;;;;;1.67;1.57;;;26.70;63.50;;;;;;4920154;29;20487;-85
2022/08/12 03:12:56;;;;;;;1.40;1.30;;;26.70;63.50;;;;;;4920213;29;20543;-85
2022/08/12 03:15:24;;;;;;;1.73;1.63;;;26.70;63.60;;;;;;4920335;29;20470;-86
2022/08/12 03:17:54;;;;;;;1.80;1.63;;;26.70;63.60;;;;;;4920071;29;20534;-86
2022/08/12 03:20:22;;;;;;;1.50;1.40;;;26.70;63.70;;;;;;4920131;29;20932;-87
2022/08/12 03:22:51;;;;;;;1.80;1.70;;;26.70;63.70;;;;;;4920197;29;20495;-86
2022/08/12 03:25:23;;;;;;;1.40;1.30;;;26.70;63.60;;;;;;4920017;29;20538;-86
2022/08/12 03:27:55;;;;;;;1.50;1.40;;;26.70;63.70;;;;;;4920058;29;20837;-86
2022/08/12 03:30:24;;;;;;;2.20;2.00;;;26.70;63.70;;;;;;4919949;29;20532;-94
2022/08/12 03:32:52;;;;;;;1.43;1.33;;;26.70;63.60;;;;;;4920084;29;20471;-86
2022/08/12 03:35:25;;;;;;;1.77;1.67;;;26.60;63.50;;;;;;4920019;29;20627;-86
2022/08/12 03:37:57;;;;;;;1.80;1.70;;;26.70;63.70;;;;;;4920068;29;20448;-86
2022/08/12 04:02:34;;;;;;;1.80;1.70;;;26.60;63.90;;;;;;4919276;29;20577;-86
2022/08/12 04:05:02;;;;;;;2.07;1.97;;;26.60;63.90;;;;;;4919295;29;20519;-86
2022/08/12 04:07:30;;;;;;;2.00;1.90;;;26.60;63.90;;;;;;4919440;29;20867;-86
2022/08/12 04:09:58;;;;;;;1.70;1.60;;;26.60;64.00;;;;;;4919006;29;20944;-86
2022/08/12 04:15:18;;;;;;;2.53;2.33;;;26.60;63.90;;;;;;4919280;29;20407;-87
2022/08/12 04:17:46;;;;;;;1.73;1.63;;;26.60;64.00;;;;;;4919326;29;20439;-86
2022/08/12 04:20:18;;;;;;;1.60;1.50;;;26.60;64.00;;;;;;4919081;29;20444;-86
2022/08/12 04:22:46;;;;;;;1.80;1.70;;;26.60;64.00;;;;;;4919175;29;20543;-86
2022/08/12 04:25:13;;;;;;;1.70;1.60;;;26.60;64.00;;;;;;4918990;29;20912;-87
2022/08/12 04:27:43;;;;;;;2.33;2.13;;;26.60;64.00;;;;;;4918955;29;20540;-86
2022/08/12 04:30:11;;;;;;;1.60;1.50;;;26.60;63.90;;;;;;4918989;29;20535;-86
2022/08/12 04:32:40;;;;;;;1.70;1.60;;;26.70;64.00;;;;;;4918912;29;20840;-86
2022/08/12 04:35:07;;;;;;;2.10;1.87;;;26.60;64.00;;;;;;4918900;29;20530;-86
2022/08/12 04:37:35;;;;;;;1.80;1.70;;;26.60;64.10;;;;;;4918764;29;20487;-87
2022/08/12 04:40:03;;;;;;;1.80;1.70;;;26.60;64.00;;;;;;4923741;29;20480;-93
2022/08/12 04:42:31;;;;;;;1.70;1.60;;;26.70;64.10;;;;;;4921014;29;20436;-86
2022/08/12 04:44:58;;;;;;;1.87;1.77;;;26.60;64.10;;;;;;4918761;29;20451;-86
2022/08/12 04:47:25;;;;;;;2.20;2.10;;;26.60;64.10;;;;;;4918710;29;20444;-86
2022/08/12 04:49:53;;;;;;;1.90;1.80;;;26.60;64.10;;;;;;4919484;29;20483;-86
2022/08/12 04:52:20;;;;;;;2.50;2.37;;;26.60;64.10;;;;;;4910982;29;20440;-86
2022/08/12 04:54:48;;;;;;;1.77;1.67;;;26.60;64.10;;;;;;4918436;29;20535;-86
2022/08/12 04:57:15;;;;;;;2.20;2.10;;;26.60;64.20;;;;;;4919012;29;20551;-86
2022/08/12 04:59:41;;;;;;;1.80;1.70;;;26.60;64.10;;;;;;4918284;29;20547;-87
2022/08/12 05:02:08;;;;;;;1.80;1.70;;;26.60;64.20;;;;;;4917808;29;20547;-91
2022/08/12 05:04:36;;;;;;;2.03;1.93;;;26.60;64.20;;;;;;4918383;29;20444;-86
2022/08/12 05:07:06;;;;;;;1.70;1.60;;;26.60;64.20;;;;;;4918008;29;20513;-86
2022/08/12 05:09:33;;;;;;;1.80;1.70;;;26.60;64.20;;;;;;4918119;29;20448;-86
2022/08/12 05:12:00;;;;;;;2.20;2.03;;;26.60;64.20;;;;;;4918008;29;20526;-86
2022/08/12 05:14:27;;;;;;;2.17;1.97;;;26.60;64.20;;;;;;4918289;29;20539;-87
2022/08/12 05:16:54;;;;;;;1.90;1.80;;;26.60;64.20;;;;;;4918218;29;20629;-86
2022/08/12 05:19:21;;;;;;;1.60;1.50;;;26.60;64.20;;;;;;4910578;29;20460;-86
2022/08/12 05:21:47;;;;;;;1.87;1.77;;;26.60;64.20;;;;;;4917932;29;20932;-86
2022/08/12 05:24:16;;;;;;;2.00;1.90;;;26.60;64.30;;;;;;4917677;29;20491;-86
2022/08/12 05:26:42;;;;;;;1.97;1.87;;;26.60;64.30;;;;;;4917892;29;20516;-87
2022/08/12 05:29:13;;;;;;;1.87;1.77;;;26.60;64.30;;;;;;4920665;29;20530;-85
2022/08/12 05:31:41;;;;;;;1.87;1.77;;;26.60;64.40;;;;;;4956120;28;20521;-85
2022/08/12 05:34:10;;;;;;;2.10;2.00;;;26.60;64.40;;;;;;4955927;29;20446;-85
2022/08/12 05:36:37;;;;;;;1.63;1.53;;;26.60;64.40;;;;;;4955872;29;20446;-89
2022/08/12 05:39:04;;;;;;;1.73;1.63;;;26.60;64.40;;;;;;4955904;29;20996;-94
2022/08/12 05:41:35;;;;;;;2.47;2.27;;;26.60;64.40;;;;;;4956254;29;20830;-85
2022/08/12 05:44:04;;;;;;;1.70;1.60;;;26.60;64.40;;;;;;4956024;29;20456;-86
2022/08/12 05:46:32;;;;;;;2.27;2.07;;;26.60;64.50;;;;;;4955736;29;20496;-86
2022/08/12 05:49:01;;;;;;;1.80;1.70;;;26.60;64.60;;;;;;4955702;29;20515;-86
2022/08/12 05:51:29;;;;;;;1.80;1.70;;;26.60;64.50;;;;;;4955797;29;20462;-86
2022/08/12 05:53:57;;;;;;;2.47;2.27;;;26.60;64.60;;;;;;4955778;29;20533;-88
2022/08/12 05:56:26;;;;;;;4.30;3.20;;;26.60;64.60;;;;;;4955946;29;20478;-88
2022/08/12 05:58:55;;;;;;;3.83;3.50;;;26.50;64.70;;;;;;4956961;29;20493;-85
2022/08/12 06:01:24;;;;;;;5.83;4.90;;;26.50;64.40;;;;;;4956102;29;20477;-93
2022/08/12 06:03:52;;;;;;;6.03;4.70;;;26.50;64.70;;;;;;4959269;28;20453;-90
2022/08/12 06:06:20;;;;;;;5.27;4.70;;;26.40;64.40;;;;;;4956699;29;20517;-93
2022/08/12 06:08:52;;;;;;;5.53;4.90;;;26.40;64.70;;;;;;4957645;29;20446;-84
2022/08/12 06:11:20;;;;;;;6.47;5.33;;;26.30;65.20;;;;;;4959223;29;20853;-85
2022/08/12 06:13:47;;;;;;;6.50;5.30;;;26.20;65.20;;;;;;4960179;29;20553;-90
2022/08/12 06:16:18;;;;;;;7.80;5.33;;;26.20;65.30;;;;;;4960186;29;20520;-91
2022/08/12 06:18:47;;;;;;;7.10;5.60;;;26.20;65.30;;;;;;4961050;28;20539;-93
2022/08/12 06:21:16;;;;;;;6.20;5.60;;;26.20;65.30;;;;;;4960011;29;20454;-92
2022/08/12 06:23:44;;;;;;;9.73;5.70;;;26.20;65.20;;;;;;4959631;29;20525;-87
2022/08/12 06:26:14;;;;;;;5.30;4.90;;;26.20;65.20;;;;;;4959594;29;20548;-94
2022/08/12 06:28:41;;;;;;;7.03;5.60;;;26.20;66.20;;;;;;4959406;29;20912;-85
2022/08/12 06:31:09;;;;;;;7.30;5.40;;;26.20;65.40;;;;;;4959053;29;20530;-87
2022/08/12 06:33:40;;;;;;;6.33;4.80;;;26.20;65.30;;;;;;4958194;28;20525;-93
2022/08/12 06:36:08;;;;;;;6.83;4.80;;;26.20;65.40;;;;;;4959352;29;20570;-86
2022/08/12 06:38:35;;;;;;;10.80;5.13;;;26.20;65.50;;;;;;4959357;29;20446;-91
2022/08/12 06:43:50;;;;;;;8.27;4.53;;;26.20;65.60;;;;;;4959712;29;20537;-92
2022/08/12 06:46:18;;;;;;;10.13;5.53;;;26.20;65.60;;;;;;4959068;29;21025;-91
2022/08/12 06:48:46;;;;;;;5.70;5.23;;;26.20;65.70;;;;;;4958595;29;20869;-85
2022/08/12 06:51:13;;;;;;;9.93;5.03;;;26.20;65.80;;;;;;4958693;29;20477;-92
2022/08/12 06:53:42;;;;;;;5.90;4.53;;;26.20;65.80;;;;;;4958511;29;20454;-85
2022/08/12 06:56:09;;;;;;;9.80;5.07;;;26.20;65.70;;;;;;4958779;29;20446;-92
2022/08/12 06:58:38;;;;;;;12.00;5.80;;;26.30;65.80;;;;;;4959786;29;20446;-93
2022/08/12 07:01:06;;;;;;;8.43;5.60;;;26.30;65.80;;;;;;4959547;29;20985;-89
2022/08/12 07:03:33;;;;;;;10.33;5.03;;;26.30;65.70;;;;;;4962035;28;20996;-94
2022/08/12 07:06:05;;;;;;;6.67;5.07;;;26.40;65.80;;;;;;4959045;29;20988;-91
2022/08/12 07:08:33;;;;;;;14.73;5.63;;;26.40;65.70;;;;;;4958700;29;20446;-91
2022/08/12 07:11:03;;;;;;;6.57;4.60;;;26.40;65.70;;;;;;4958722;29;20452;-89
2022/08/12 07:13:34;;;;;;;6.53;5.00;;;26.40;65.70;;;;;;4958907;29;20550;-93
2022/08/12 07:16:01;;;;;;;4.90;4.40;;;26.40;65.70;;;;;;4949327;29;20459;-86
2022/08/12 07:18:31;;;;;;;5.10;4.30;;;26.40;65.60;;;;;;4939290;29;20538;-89
2022/08/12 07:20:59;;;;;;;8.07;4.80;;;26.40;65.60;;;;;;4939664;29;20455;-84
2022/08/12 07:23:29;;;;;;;8.40;4.80;;;26.50;65.80;;;;;;4938732;29;20451;-84
2022/08/12 07:25:57;;;;;;;7.77;4.60;;;26.50;65.80;;;;;;4938017;29;21238;-83
2022/08/12 07:28:27;;;;;;;7.30;4.80;;;26.50;65.80;;;;;;4938308;29;20546;-84
2022/08/12 07:30:55;;;;;;;7.47;4.27;;;26.50;65.70;;;;;;4938102;29;20939;-84
2022/08/12 07:33:24;;;;;;;7.23;4.50;;;26.50;65.80;;;;;;4938110;29;20481;-92
2022/08/12 07:35:52;;;;;;;7.57;3.80;;;26.50;65.70;;;;;;4938100;29;20453;-83
2022/08/12 07:38:25;;;;;;;7.27;4.10;;;26.50;65.60;;;;;;4938297;29;20451;-88
2022/08/12 07:50:22;;;;;;;6.37;4.50;;;26.50;65.70;;;;;;4898520;29;20532;-85
2022/08/12 07:52:49;;;;;;;4.13;3.83;;;26.50;66.00;;;;;;4897997;29;20532;-84
2022/08/12 07:55:18;;;;;;;5.40;4.50;;;26.50;65.90;;;;;;4921670;29;20563;-83
2022/08/12 07:57:56;;;;;;;5.30;4.50;;;26.50;66.00;;;;;;4938664;29;20436;-86
2022/08/12 08:00:39;;;;;;;6.20;3.70;;;26.50;66.00;;;;;;4941128;29;20507;-86
2022/08/12 08:03:08;;;;;;;7.90;4.03;;;26.50;66.10;;;;;;4946097;29;20459;-90
2022/08/12 08:05:37;;;;;;;4.27;3.87;;;26.50;66.10;;;;;;4941907;29;20538;-86
2022/08/12 08:08:16;;;;;;;7.37;3.67;;;26.50;66.10;;;;;;4937878;29;20585;-85
2022/08/12 08:10:44;;;;;;;6.07;4.17;;;26.60;66.40;;;;;;4937816;29;20450;-87
2022/08/12 08:13:12;;;;;;;4.57;4.23;;;26.60;66.70;;;;;;4937438;29;20467;-83
2022/08/12 08:15:40;;;;;;;7.00;3.80;;;26.60;67.00;;;;;;4938117;29;20456;-87
2022/08/12 08:18:09;;;;;;;12.83;3.67;;;26.60;67.00;;;;;;4938055;29;20447;-88
2022/08/12 08:20:39;;;;;;;3.80;3.50;;;26.50;66.70;;;;;;4938387;29;20475;-88
2022/08/12 08:23:11;;;;;;;7.33;4.50;;;26.60;66.70;;;;;;4938186;29;20475;-87
2022/08/12 08:25:38;;;;;;;9.00;4.50;;;26.60;66.40;;;;;;4938486;29;20453;-87
2022/08/12 08:28:09;;;;;;;7.17;4.40;;;26.60;66.20;;;;;;4938053;29;21093;-88
2022/08/12 08:30:42;;;;;;;5.13;3.40;;;26.60;66.20;;;;;;4938375;29;20486;-87
2022/08/12 08:33:10;;;;;;;5.37;3.50;;;26.60;66.50;;;;;;4938375;29;20470;-90
2022/08/12 08:35:37;;;;;;;5.20;3.30;;;26.60;66.10;;;;;;4938637;29;20534;-89
2022/08/12 08:38:10;;;;;;;3.80;3.43;;;26.60;66.10;;;;;;4938311;29;20443;-91
2022/08/12 08:43:24;;;;;;;4.00;3.70;;;26.60;66.30;;;;;;4937726;29;20917;-88
2022/08/12 08:45:54;;;;;;;4.13;3.37;;;26.50;66.30;;;;;;4937490;29;20542;-88
2022/08/12 08:48:22;;;;;;;3.50;3.20;;;26.60;66.40;;;;;;4937057;29;20507;-88
2022/08/12 08:50:49;;;;;;;3.20;3.00;;;26.60;66.40;;;;;;4937437;29;20447;-86
2022/08/12 08:53:17;;;;;;;4.70;3.23;;;26.60;66.30;;;;;;4937129;29;20459;-86
2022/08/12 08:55:44;;;;;;;4.17;3.23;;;26.60;66.40;;;;;;4936998;29;20457;-86
2022/08/12 08:58:11;;;;;;;5.10;3.57;;;26.60;66.40;;;;;;4936798;29;20549;-86
2022/08/12 09:00:39;;;;;;;7.03;2.83;;;26.60;66.40;;;;;;4937022;29;20546;-86
2022/08/12 09:03:08;;;;;;;2.70;2.50;;;26.60;66.40;;;;;;4936970;29;20558;-94
2022/08/12 09:05:36;;;;;;;5.23;3.93;;;26.60;66.40;;;;;;4938107;29;20473;-84
2022/08/12 09:08:05;;;;;;;6.50;3.33;;;26.60;66.40;;;;;;4935040;29;20487;-85
2022/08/12 09:10:33;;;;;;;3.97;3.57;;;26.60;66.30;;;;;;4937787;29;20538;-84
2022/08/12 09:15:46;;;;;;;2.67;2.47;;;26.60;65.90;;;;;;4937030;29;20427;-85
2022/08/12 09:18:17;;;;;;;3.77;3.17;;;26.60;65.80;;;;;;4937194;29;20451;-87
2022/08/12 09:20:45;;;;;;;4.63;3.10;;;26.70;65.50;;;;;;4938685;29;20862;-88
2022/08/12 09:23:13;;;;;;;3.00;2.70;;;26.60;66.20;;;;;;4939127;29;20461;-87
2022/08/12 09:25:43;;;;;;;3.07;2.77;;;26.70;65.50;;;;;;4940277;29;20452;-86
2022/08/12 09:28:10;;;;;;;2.83;2.63;;;26.60;65.30;;;;;;4945133;29;21061;-85
2022/08/12 09:30:37;;;;;;;2.70;2.47;;;;;;;;;;4937262;29;20487;-87
2022/08/12 09:33:05;;;;;;;3.27;2.67;;;26.60;86.00;;;;;;4936991;29;20454;-88
2022/08/12 09:35:39;;;;;;;4.03;2.50;;;26.60;77.10;;;;;;4936844;29;20943;-86
2022/08/12 09:38:07;;;;;;;7.43;2.60;;;26.60;76.60;;;;;;4936451;29;20541;-85
2022/08/12 09:40:34;;;;;;;2.93;2.27;;;26.70;75.40;;;;;;4936366;29;20506;-85
2022/08/12 09:45:48;;;;;;;3.37;2.80;;;26.70;70.70;;;;;;4936578;29;20447;-87
2022/08/12 09:48:18;;;;;;;2.70;2.50;;;26.70;67.60;;;;;;4936439;29;20494;-88
2022/08/12 09:50:49;;;;;;;3.53;2.67;;;26.70;66.50;;;;;;4937189;29;20443;-86
2022/08/12 09:53:23;;;;;;;3.13;2.80;;;26.70;66.20;;;;;;4936700;29;20534;-85
2022/08/12 09:55:52;;;;;;;3.13;2.07;;;26.70;65.60;;;;;;4936966;29;20443;-86
2022/08/12 09:58:27;;;;;;;3.50;2.20;;;26.70;65.70;;;;;;4936955;29;20502;-85
2022/08/12 10:00:55;;;;;;;1.90;1.80;;;26.70;65.60;;;;;;4936296;29;20506;-86
2022/08/12 10:03:25;;;;;;;2.83;2.20;;;26.70;65.60;;;;;;4935996;29;20454;-86
2022/08/12 10:05:54;;;;;;;2.40;2.20;;;26.70;65.60;;;;;;4935865;29;20871;-90
2022/08/12 10:08:23;;;;;;;2.40;2.20;;;26.70;65.50;;;;;;4937594;29;20939;-85
2022/08/12 10:13:43;;;;;;;2.43;2.23;;;26.70;65.40;;;;;;4955374;29;20956;-86
2022/08/12 10:16:13;;;;;;;4.43;2.20;;;26.70;65.30;;;;;;4955478;29;20445;-92
2022/08/12 10:18:42;;;;;;;2.37;2.27;;;26.70;65.40;;;;;;4955272;29;20945;-86
2022/08/12 10:21:12;;;;;;;2.37;2.10;;;26.70;65.60;;;;;;4954833;29;20458;-86
2022/08/12 10:23:41;;;;;;;5.03;2.67;;;26.70;65.60;;;;;;4954888;29;20448;-86
2022/08/12 10:31:38;;;;;;;2.47;2.10;;;26.70;65.80;;;;;;4955053;28;20477;-85
2022/08/12 10:34:08;;;;;;;1.87;1.77;;;26.70;65.80;;;;;;4954595;29;20867;-89
2022/08/12 10:36:38;;;;;;;2.37;2.17;;;26.70;65.80;;;;;;4954631;29;20837;-88
2022/08/12 10:39:05;;;;;;;2.10;2.00;;;26.80;65.90;;;;;;4954350;28;20518;-85
2022/08/12 10:44:16;;;;;;;2.13;1.93;;;26.80;65.80;;;;;;4954664;29;20412;-85
2022/08/12 10:46:44;;;;;;;2.60;2.13;;;26.80;65.90;;;;;;4954753;29;20445;-87
2022/08/12 10:49:11;;;;;;;2.20;2.00;;;26.80;65.80;;;;;;4954664;29;20942;-85
2022/08/12 10:51:40;;;;;;;2.67;2.30;;;26.80;65.80;;;;;;4954875;29;20530;-85
2022/08/12 10:54:07;;;;;;;2.30;2.10;;;26.80;65.80;;;;;;4954915;29;20533;-85
2022/08/12 10:56:35;;;;;;;4.00;2.03;;;26.80;65.80;;;;;;4955060;29;20857;-85
2022/08/12 10:59:03;;;;;;;2.00;1.90;;;26.80;65.80;;;;;;4954993;29;20461;-85
2022/08/12 11:01:32;;;;;;;2.53;2.03;;;26.80;65.80;;;;;;4955247;28;20485;-85
2022/08/12 11:04:01;;;;;;;1.87;1.77;;;26.80;65.80;;;;;;4955083;28;20454;-85
2022/08/12 11:06:28;;;;;;;2.00;1.90;;;26.80;65.80;;;;;;4958434;29;20453;-85
2022/08/12 11:08:56;;;;;;;1.80;1.70;;;26.80;65.70;;;;;;4958547;29;20489;-85
2022/08/12 11:11:25;;;;;;;1.93;1.83;;;26.80;65.70;;;;;;4958414;29;20450;-86
2022/08/12 11:13:52;;;;;;;1.80;1.70;;;26.80;65.70;;;;;;4958327;29;20442;-87
2022/08/12 11:16:19;;;;;;;1.60;1.50;;;26.80;65.70;;;;;;4958612;29;20450;-85
2022/08/12 11:18:46;;;;;;;2.33;1.80;;;26.80;65.70;;;;;;4958589;29;20450;-85
2022/08/12 11:21:13;;;;;;;2.23;2.03;;;26.80;65.70;;;;;;4958327;29;20788;-85
2022/08/12 11:23:40;;;;;;;1.80;1.70;;;26.80;65.70;;;;;;4958572;29;20464;-85
2022/08/12 11:26:08;;;;;;;2.20;1.97;;;26.80;65.70;;;;;;4958472;29;20530;-86
2022/08/12 11:28:36;;;;;;;1.80;1.70;;;26.80;65.70;;;;;;4958138;29;20500;-86
2022/08/12 11:31:03;;;;;;;1.70;1.60;;;26.80;65.60;;;;;;4958227;28;20509;-85
2022/08/12 11:33:30;;;;;;;1.90;1.80;;;26.80;65.70;;;;;;4958129;29;20569;-85
2022/08/12 11:36:05;;;;;;;2.07;1.97;;;26.80;65.70;;;;;;4958154;29;20442;-85
2022/08/12 11:38:32;;;;;;;1.53;1.43;;;26.80;65.60;;;;;;4958065;29;20434;-85
2022/08/12 11:40:59;;;;;;;1.70;1.60;;;26.80;65.70;;;;;;4958010;29;20438;-86
2022/08/12 11:43:27;;;;;;;1.67;1.57;;;26.80;65.60;;;;;;4958280;29;20887;-86
2022/08/12 11:45:54;;;;;;;2.13;2.03;;;26.80;65.70;;;;;;4957939;29;20525;-89
2022/08/12 11:48:21;;;;;;;2.13;1.80;;;26.80;65.70;;;;;;4957985;29;20504;-86
2022/08/12 11:50:47;;;;;;;3.10;1.73;;;26.80;65.60;;;;;;4957603;29;20446;-86
2022/08/12 11:53:14;;;;;;;2.07;1.87;;;26.80;65.60;;;;;;4957857;29;20527;-87
2022/08/12 11:55:42;;;;;;;1.50;1.40;;;26.80;65.60;;;;;;4957923;29;20874;-87
2022/08/12 11:58:09;;;;;;;1.83;1.73;;;26.80;66.40;;;;;;4957886;29;20533;-87
2022/08/12 12:00:38;;;;;;;1.83;1.63;;;26.90;66.60;;;;;;4957866;28;20446;-86
2022/08/12 12:03:04;;;;;;;1.80;1.70;;;26.90;65.70;;;;;;4957650;29;20457;-86
2022/08/12 12:05:31;;;;;;;1.50;1.40;;;26.80;65.60;;;;;;4957985;29;20442;-87
2022/08/12 12:07:59;;;;;;;2.30;1.70;;;26.80;65.60;;;;;;4957949;29;20490;-85
2022/08/12 12:10:25;;;;;;;1.90;1.80;;;26.90;66.60;;;;;;4958510;29;20549;-86
2022/08/12 12:12:52;;;;;;;1.87;1.33;;;26.80;65.60;;;;;;4958159;29;20450;-88
2022/08/12 12:15:19;;;;;;;1.73;1.63;;;26.90;66.60;;;;;;4960027;28;20450;-86
2022/08/12 12:17:51;;;;;;;1.80;1.70;;;26.80;65.60;;;;;;4961885;29;21025;-84
2022/08/12 12:20:18;;;;;;;1.90;1.70;;;26.90;65.60;;;;;;4961158;29;20481;-86
2022/08/12 12:22:45;;;;;;;1.30;1.20;;;26.90;65.70;;;;;;4957552;29;20446;-85
2022/08/12 12:25:12;;;;;;;1.80;1.70;;;26.90;65.70;;;;;;4957129;29;20466;-86
2022/08/12 12:27:51;;;;;;;1.90;1.80;;;26.90;65.70;;;;;;4957274;29;20509;-85
2022/08/12 12:30:18;;;;;;;1.70;1.60;;;26.90;65.60;;;;;;4935649;28;20494;-93
2022/08/12 12:32:46;;;;;;;1.60;1.50;;;26.90;65.70;;;;;;4959354;29;20473;-92
2022/08/12 12:35:14;;;;;;;1.30;1.20;;;26.80;64.50;;;;;;4937903;29;20534;-87
2022/08/12 12:37:55;;;;;;;1.63;1.53;;;26.80;64.40;;;;;;4939127;29;20459;-87
2022/08/12 12:40:24;;;;;;;1.50;1.40;;;26.90;64.50;;;;;;4938583;29;20451;-91
2022/08/12 12:42:51;;;;;;;1.80;1.70;;;26.90;64.30;;;;;;4937763;29;20455;-88
2022/08/12 12:45:21;;;;;;;1.60;1.50;;;26.80;63.80;;;;;;4942316;29;20452;-87
2022/08/12 12:47:59;;;;;;;1.47;1.30;;;26.80;63.50;;;;;;4956317;29;20585;-86
2022/08/12 12:50:31;;;;;;;1.50;1.40;;;26.90;63.80;;;;;;4956279;29;20440;-87
2022/08/12 12:52:58;;;;;;;1.37;1.27;;;26.80;63.60;;;;;;4956219;29;20537;-87
2022/08/12 12:55:27;;;;;;;1.60;1.50;;;26.80;63.50;;;;;;4956211;29;20447;-86
2022/08/12 12:57:57;;;;;;;1.60;1.50;;;26.80;63.20;;;;;;4956222;29;20445;-86
2022/08/12 13:00:27;;;;;;;1.30;1.20;;;26.80;63.10;;;;;;4956336;28;20533;-86
2022/08/12 13:02:55;;;;;;;1.40;1.30;;;26.90;63.20;;;;;;4925273;29;20480;-88
2022/08/12 13:05:25;;;;;;;5.40;1.70;;;26.90;63.40;;;;;;4956554;29;20450;-92
2022/08/12 13:07:54;;;;;;;1.50;1.20;;;26.80;64.20;;;;;;4945370;29;20475;-93
2022/08/12 13:10:24;;;;;;;1.60;1.50;;;26.90;62.90;;;;;;4944689;29;20466;-91
2022/08/12 13:12:51;;;;;;;1.43;1.30;;;26.90;62.80;;;;;;4956453;29;20446;-89
2022/08/12 13:15:18;;;;;;;1.50;1.40;;;26.90;62.80;;;;;;4956389;29;20530;-88
2022/08/12 13:17:48;;;;;;;1.50;1.40;;;26.90;62.80;;;;;;4956202;29;21044;-88
2022/08/12 13:20:16;;;;;;;1.47;1.37;;;26.80;63.10;;;;;;4956181;29;20486;-87
2022/08/12 13:22:43;;;;;;;5.07;1.40;;;26.80;63.10;;;;;;4956806;29;20554;-89
2022/08/12 13:25:12;;;;;;;2.40;1.67;;;26.80;62.80;;;;;;4956213;29;20493;-88
2022/08/12 13:27:44;;;;;;;1.73;1.20;;;26.90;63.00;;;;;;4956252;28;20478;-88
2022/08/12 13:30:14;;;;;;;1.73;1.63;;;26.80;62.70;;;;;;4956228;28;20938;-88
2022/08/12 13:32:42;;;;;;;2.50;1.20;;;26.90;62.70;;;;;;4956022;29;20478;-87
2022/08/12 13:35:09;;;;;;;2.57;1.27;;;26.80;62.40;;;;;;4956477;29;20841;-87
2022/08/12 13:37:39;;;;;;;1.43;1.20;;;26.90;62.50;;;;;;4956428;29;20529;-92
2022/08/12 13:40:09;;;;;;;2.70;1.60;;;26.90;62.40;;;;;;4956511;29;20449;-87
2022/08/12 13:42:39;;;;;;;3.73;1.60;;;26.80;62.10;;;;;;4956088;29;20450;-88
2022/08/12 13:45:07;;;;;;;1.23;1.13;;;26.90;62.30;;;;;;4955925;29;20950;-88
2022/08/12 13:47:54;;;;;;;1.60;1.50;;;26.90;62.30;;;;;;4956090;29;20875;-91
2022/08/12 13:50:22;;;;;;;2.37;1.60;;;26.90;62.50;;;;;;4956427;29;20755;-88
2022/08/12 13:52:50;;;;;;;1.70;1.47;;;26.90;62.40;;;;;;4955852;29;20457;-88
2022/08/12 13:55:18;;;;;;;1.10;1.00;;;26.90;62.50;;;;;;4955862;29;20451;-88
2022/08/12 13:57:46;;;;;;;3.80;1.50;;;26.80;62.50;;;;;;4956026;29;20472;-89
2022/08/12 14:00:14;;;;;;;1.37;1.27;;;26.90;62.40;;;;;;4956003;28;20537;-87
2022/08/12 14:02:42;;;;;;;1.20;1.10;;;26.80;62.20;;;;;;4955796;29;20524;-88
2022/08/12 14:05:09;;;;;;;1.70;1.30;;;26.90;62.30;;;;;;4955869;29;20450;-88
2022/08/12 14:07:51;;;;;;;1.40;1.30;;;26.90;62.40;;;;;;4955943;29;20474;-87
2022/08/12 14:10:37;;;;;;;1.60;1.50;;;26.90;62.40;;;;;;4955818;29;20525;-86
2022/08/12 14:13:11;;;;;;;1.40;1.30;;;26.90;62.30;;;;;;4956275;29;20518;-88
2022/08/12 14:15:39;;;;;;;1.13;1.03;;;26.90;62.60;;;;;;4956511;29;20462;-89
2022/08/12 14:18:13;;;;;;;1.70;1.60;;;26.80;62.80;;;;;;4956533;29;20848;-89
2022/08/12 14:20:40;;;;;;;1.50;1.40;;;26.80;62.40;;;;;;4956057;29;20542;-90
2022/08/12 14:23:07;;;;;;;1.40;1.23;;;26.80;63.00;;;;;;4955468;29;20470;-89
2022/08/12 14:25:35;;;;;;;1.60;1.40;;;26.80;62.80;;;;;;4955653;29;20450;-89
2022/08/12 14:28:10;;;;;;;1.40;1.30;;;26.90;62.60;;;;;;4955986;29;20733;-89
2022/08/12 14:30:44;;;;;;;1.33;1.23;;;26.90;62.40;;;;;;4955828;28;20561;-89
2022/08/12 14:33:12;;;;;;;1.10;1.00;;;26.90;62.40;;;;;;4955922;29;20461;-89
2022/08/12 14:35:39;;;;;;;1.40;1.30;;;26.90;62.60;;;;;;4956048;29;20454;-89
2022/08/12 14:38:14;;;;;;;1.87;1.30;;;26.90;62.60;;;;;;4955430;29;20525;-90
2022/08/12 14:40:42;;;;;;;1.70;1.60;;;26.90;62.40;;;;;;4958254;29;20442;-88
2022/08/12 14:43:09;;;;;;;1.30;1.20;;;26.80;62.30;;;;;;4959506;29;20453;-86
2022/08/12 14:45:36;;;;;;;1.20;1.10;;;26.80;62.30;;;;;;4959451;29;20470;-89
2022/08/12 14:48:05;;;;;;;1.47;1.37;;;26.80;62.20;;;;;;4959089;29;20521;-88
2022/08/12 14:50:32;;;;;;;1.20;1.10;;;26.90;62.30;;;;;;4959488;29;20525;-88
2022/08/12 14:52:59;;;;;;;1.37;1.27;;;26.90;62.30;;;;;;4959127;29;20438;-88